sensor_id;sensor_type;location;lat;lon;timestamp;P1;durP1;ratioP1;P2;durP2;ratioP2
60722;SDS011;46574;52.818;6.516;2023-06-22T00:00:50;20.08;;;18.25;;
60722;SDS011;46574;52.818;6.516;2023-06-22T00:03:17;21.25;;;19.10;;
60722;SDS011;46574;52.818;6.516;2023-06-22T00:05:43;22.80;;;20.52;;
60722;SDS011;46574;52.818;6.516;2023-06-22T00:08:10;19.77;;;17.88;;
60722;SDS011;46574;52.818;6.516;2023-06-22T00:10:35;24.15;;;21.15;;
60722;SDS011;46574;52.818;6.516;2023-06-22T00:13:01;21.75;;;19.65;;
60722;SDS011;46574;52.818;6.516;2023-06-22T00:15:27;22.65;;;20.45;;
60722;SDS011;46574;52.818;6.516;2023-06-22T00:17:53;23.55;;;21.15;;
60722;SDS011;46574;52.818;6.516;2023-06-22T00:20:18;22.70;;;20.50;;
60722;SDS011;46574;52.818;6.516;2023-06-22T00:22:44;24.58;;;22.15;;
60722;SDS011;46574;52.818;6.516;2023-06-22T00:25:10;23.83;;;21.52;;
60722;SDS011;46574;52.818;6.516;2023-06-22T00:27:36;24.48;;;22.13;;
60722;SDS011;46574;52.818;6.516;2023-06-22T00:30:02;22.88;;;20.60;;
60722;SDS011;46574;52.818;6.516;2023-06-22T00:32:28;23.00;;;20.67;;
60722;SDS011;46574;52.818;6.516;2023-06-22T00:34:54;22.50;;;20.15;;
60722;SDS011;46574;52.818;6.516;2023-06-22T00:37:20;24.13;;;20.90;;
60722;SDS011;46574;52.818;6.516;2023-06-22T00:39:53;27.30;;;24.58;;
60722;SDS011;46574;52.818;6.516;2023-06-22T00:42:19;26.20;;;23.58;;
60722;SDS011;46574;52.818;6.516;2023-06-22T00:44:44;26.55;;;23.85;;
60722;SDS011;46574;52.818;6.516;2023-06-22T00:47:14;28.05;;;25.17;;
60722;SDS011;46574;52.818;6.516;2023-06-22T00:49:42;27.23;;;24.38;;
60722;SDS011;46574;52.818;6.516;2023-06-22T00:52:08;27.83;;;24.95;;
60722;SDS011;46574;52.818;6.516;2023-06-22T00:54:38;24.23;;;21.92;;
60722;SDS011;46574;52.818;6.516;2023-06-22T00:57:11;26.30;;;23.75;;
60722;SDS011;46574;52.818;6.516;2023-06-22T00:59:42;23.00;;;20.77;;
60722;SDS011;46574;52.818;6.516;2023-06-22T01:02:08;22.92;;;20.70;;
60722;SDS011;46574;52.818;6.516;2023-06-22T01:04:35;27.58;;;24.88;;
60722;SDS011;46574;52.818;6.516;2023-06-22T01:09:31;26.02;;;23.50;;
60722;SDS011;46574;52.818;6.516;2023-06-22T01:12:02;26.13;;;23.52;;
60722;SDS011;46574;52.818;6.516;2023-06-22T01:15:04;28.65;;;25.92;;
60722;SDS011;46574;52.818;6.516;2023-06-22T01:17:26;26.85;;;24.25;;
60722;SDS011;46574;52.818;6.516;2023-06-22T01:19:54;27.92;;;25.02;;
60722;SDS011;46574;52.818;6.516;2023-06-22T01:22:22;27.90;;;25.13;;
60722;SDS011;46574;52.818;6.516;2023-06-22T01:29:55;25.92;;;23.55;;
60722;SDS011;46574;52.818;6.516;2023-06-22T01:32:28;25.73;;;23.23;;
60722;SDS011;46574;52.818;6.516;2023-06-22T01:34:57;25.15;;;22.75;;
60722;SDS011;46574;52.818;6.516;2023-06-22T01:37:25;24.10;;;21.70;;
60722;SDS011;46574;52.818;6.516;2023-06-22T01:39:53;23.85;;;21.58;;
60722;SDS011;46574;52.818;6.516;2023-06-22T01:42:20;23.92;;;21.63;;
60722;SDS011;46574;52.818;6.516;2023-06-22T01:44:49;24.73;;;22.15;;
60722;SDS011;46574;52.818;6.516;2023-06-22T01:47:15;23.33;;;21.10;;
60722;SDS011;46574;52.818;6.516;2023-06-22T01:49:41;26.42;;;23.88;;
60722;SDS011;46574;52.818;6.516;2023-06-22T01:52:07;26.15;;;23.55;;
60722;SDS011;46574;52.818;6.516;2023-06-22T01:54:33;23.65;;;21.35;;
60722;SDS011;46574;52.818;6.516;2023-06-22T01:56:58;23.77;;;21.48;;
60722;SDS011;46574;52.818;6.516;2023-06-22T02:02:04;25.20;;;22.63;;
60722;SDS011;46574;52.818;6.516;2023-06-22T02:04:34;25.75;;;23.20;;
60722;SDS011;46574;52.818;6.516;2023-06-22T02:07:05;28.80;;;25.77;;
60722;SDS011;46574;52.818;6.516;2023-06-22T02:09:34;29.98;;;26.95;;
60722;SDS011;46574;52.818;6.516;2023-06-22T02:12:02;32.10;;;28.73;;
60722;SDS011;46574;52.818;6.516;2023-06-22T02:14:30;30.65;;;27.35;;
60722;SDS011;46574;52.818;6.516;2023-06-22T02:16:56;28.33;;;25.42;;
60722;SDS011;46574;52.818;6.516;2023-06-22T02:19:24;25.48;;;22.98;;
60722;SDS011;46574;52.818;6.516;2023-06-22T02:21:50;28.58;;;25.88;;
60722;SDS011;46574;52.818;6.516;2023-06-22T02:24:16;30.45;;;27.42;;
60722;SDS011;46574;52.818;6.516;2023-06-22T02:26:42;31.58;;;28.27;;
60722;SDS011;46574;52.818;6.516;2023-06-22T02:29:10;31.02;;;27.92;;
60722;SDS011;46574;52.818;6.516;2023-06-22T02:31:36;31.02;;;27.70;;
60722;SDS011;46574;52.818;6.516;2023-06-22T02:34:01;34.03;;;27.70;;
60722;SDS011;46574;52.818;6.516;2023-06-22T02:36:27;43.97;;;29.10;;
60722;SDS011;46574;52.818;6.516;2023-06-22T02:38:55;29.97;;;26.97;;
60722;SDS011;46574;52.818;6.516;2023-06-22T02:41:26;37.63;;;29.33;;
60722;SDS011;46574;52.818;6.516;2023-06-22T02:43:52;53.83;;;34.22;;
60722;SDS011;46574;52.818;6.516;2023-06-22T02:46:17;37.50;;;33.20;;
60722;SDS011;46574;52.818;6.516;2023-06-22T02:48:43;36.63;;;29.27;;
60722;SDS011;46574;52.818;6.516;2023-06-22T02:51:09;30.02;;;27.02;;
60722;SDS011;46574;52.818;6.516;2023-06-22T02:53:34;27.98;;;25.27;;
60722;SDS011;46574;52.818;6.516;2023-06-22T02:56:03;28.65;;;25.80;;
60722;SDS011;46574;52.818;6.516;2023-06-22T02:58:32;27.63;;;24.83;;
60722;SDS011;46574;52.818;6.516;2023-06-22T03:01:04;28.75;;;25.80;;
60722;SDS011;46574;52.818;6.516;2023-06-22T03:03:30;23.25;;;21.05;;
60722;SDS011;46574;52.818;6.516;2023-06-22T03:05:56;28.90;;;26.15;;
60722;SDS011;46574;52.818;6.516;2023-06-22T03:08:22;29.40;;;26.55;;
60722;SDS011;46574;52.818;6.516;2023-06-22T03:10:47;29.98;;;27.08;;
60722;SDS011;46574;52.818;6.516;2023-06-22T03:13:13;27.00;;;24.38;;
60722;SDS011;46574;52.818;6.516;2023-06-22T03:15:39;25.55;;;23.17;;
60722;SDS011;46574;52.818;6.516;2023-06-22T03:18:04;25.58;;;23.15;;
60722;SDS011;46574;52.818;6.516;2023-06-22T03:20:30;26.67;;;24.25;;
60722;SDS011;46574;52.818;6.516;2023-06-22T03:22:58;25.08;;;22.73;;
60722;SDS011;46574;52.818;6.516;2023-06-22T03:25:24;21.50;;;19.60;;
60722;SDS011;46574;52.818;6.516;2023-06-22T03:27:50;30.27;;;27.38;;
60722;SDS011;46574;52.818;6.516;2023-06-22T03:30:16;29.73;;;26.83;;
60722;SDS011;46574;52.818;6.516;2023-06-22T03:32:42;24.70;;;22.30;;
60722;SDS011;46574;52.818;6.516;2023-06-22T03:35:08;23.25;;;21.08;;
60722;SDS011;46574;52.818;6.516;2023-06-22T03:37:34;25.33;;;22.80;;
60722;SDS011;46574;52.818;6.516;2023-06-22T03:40:00;26.10;;;23.52;;
60722;SDS011;46574;52.818;6.516;2023-06-22T03:42:26;30.38;;;27.40;;
60722;SDS011;46574;52.818;6.516;2023-06-22T03:44:51;28.50;;;25.77;;
60722;SDS011;46574;52.818;6.516;2023-06-22T03:47:17;25.90;;;23.30;;
60722;SDS011;46574;52.818;6.516;2023-06-22T03:49:43;26.15;;;23.63;;
60722;SDS011;46574;52.818;6.516;2023-06-22T03:52:09;26.20;;;23.70;;
60722;SDS011;46574;52.818;6.516;2023-06-22T03:54:35;27.30;;;24.52;;
60722;SDS011;46574;52.818;6.516;2023-06-22T03:57:01;27.58;;;24.60;;
60722;SDS011;46574;52.818;6.516;2023-06-22T03:59:27;26.40;;;23.70;;
60722;SDS011;46574;52.818;6.516;2023-06-22T04:01:53;25.95;;;23.27;;
60722;SDS011;46574;52.818;6.516;2023-06-22T04:04:19;31.65;;;28.42;;
60722;SDS011;46574;52.818;6.516;2023-06-22T04:06:45;32.83;;;29.42;;
60722;SDS011;46574;52.818;6.516;2023-06-22T04:09:11;26.30;;;23.65;;
60722;SDS011;46574;52.818;6.516;2023-06-22T04:11:37;30.90;;;27.77;;
60722;SDS011;46574;52.818;6.516;2023-06-22T04:14:02;31.58;;;28.30;;
60722;SDS011;46574;52.818;6.516;2023-06-22T04:16:28;31.50;;;28.17;;
60722;SDS011;46574;52.818;6.516;2023-06-22T04:18:54;31.30;;;27.90;;
60722;SDS011;46574;52.818;6.516;2023-06-22T04:21:19;33.65;;;30.20;;
60722;SDS011;46574;52.818;6.516;2023-06-22T04:23:45;32.45;;;28.95;;
60722;SDS011;46574;52.818;6.516;2023-06-22T04:26:12;30.35;;;27.27;;
60722;SDS011;46574;52.818;6.516;2023-06-22T04:28:39;29.95;;;26.88;;
60722;SDS011;46574;52.818;6.516;2023-06-22T04:31:05;27.02;;;24.33;;
60722;SDS011;46574;52.818;6.516;2023-06-22T04:33:30;30.83;;;27.73;;
60722;SDS011;46574;52.818;6.516;2023-06-22T04:35:57;25.83;;;23.10;;
60722;SDS011;46574;52.818;6.516;2023-06-22T04:38:23;30.58;;;27.55;;
60722;SDS011;46574;52.818;6.516;2023-06-22T04:40:50;26.45;;;23.85;;
60722;SDS011;46574;52.818;6.516;2023-06-22T04:43:15;33.30;;;29.38;;
60722;SDS011;46574;52.818;6.516;2023-06-22T04:45:41;31.40;;;28.15;;
60722;SDS011;46574;52.818;6.516;2023-06-22T04:48:07;32.28;;;28.63;;
60722;SDS011;46574;52.818;6.516;2023-06-22T04:50:40;37.65;;;33.42;;
60722;SDS011;46574;52.818;6.516;2023-06-22T04:53:06;29.50;;;26.35;;
60722;SDS011;46574;52.818;6.516;2023-06-22T04:55:32;31.98;;;28.52;;
60722;SDS011;46574;52.818;6.516;2023-06-22T04:57:58;39.95;;;33.70;;
60722;SDS011;46574;52.818;6.516;2023-06-22T05:00:30;37.25;;;33.08;;
60722;SDS011;46574;52.818;6.516;2023-06-22T05:02:56;37.55;;;33.60;;
60722;SDS011;46574;52.818;6.516;2023-06-22T05:05:23;38.38;;;33.70;;
60722;SDS011;46574;52.818;6.516;2023-06-22T05:07:50;33.00;;;29.40;;
60722;SDS011;46574;52.818;6.516;2023-06-22T05:10:18;36.25;;;32.05;;
60722;SDS011;46574;52.818;6.516;2023-06-22T05:12:46;41.90;;;36.40;;
60722;SDS011;46574;52.818;6.516;2023-06-22T05:15:12;40.97;;;36.20;;
60722;SDS011;46574;52.818;6.516;2023-06-22T05:17:37;44.53;;;39.08;;
60722;SDS011;46574;52.818;6.516;2023-06-22T05:20:10;41.40;;;36.70;;
60722;SDS011;46574;52.818;6.516;2023-06-22T05:22:37;47.25;;;38.50;;
60722;SDS011;46574;52.818;6.516;2023-06-22T05:25:04;50.88;;;40.13;;
60722;SDS011;46574;52.818;6.516;2023-06-22T05:27:31;41.42;;;36.83;;
60722;SDS011;46574;52.818;6.516;2023-06-22T05:29:57;54.50;;;44.33;;
60722;SDS011;46574;52.818;6.516;2023-06-22T05:32:22;50.25;;;42.53;;
60722;SDS011;46574;52.818;6.516;2023-06-22T05:34:48;44.08;;;37.78;;
60722;SDS011;46574;52.818;6.516;2023-06-22T05:37:13;47.42;;;38.97;;
60722;SDS011;46574;52.818;6.516;2023-06-22T05:39:39;49.55;;;41.03;;
60722;SDS011;46574;52.818;6.516;2023-06-22T05:42:05;43.17;;;38.40;;
60722;SDS011;46574;52.818;6.516;2023-06-22T05:44:32;43.17;;;37.65;;
60722;SDS011;46574;52.818;6.516;2023-06-22T05:46:58;43.30;;;38.45;;
60722;SDS011;46574;52.818;6.516;2023-06-22T05:49:24;46.17;;;39.95;;
60722;SDS011;46574;52.818;6.516;2023-06-22T05:51:54;38.08;;;33.70;;
60722;SDS011;46574;52.818;6.516;2023-06-22T05:54:21;48.35;;;40.00;;
60722;SDS011;46574;52.818;6.516;2023-06-22T05:56:46;50.05;;;40.70;;
60722;SDS011;46574;52.818;6.516;2023-06-22T05:59:12;43.45;;;36.03;;
60722;SDS011;46574;52.818;6.516;2023-06-22T06:01:37;43.20;;;37.30;;
60722;SDS011;46574;52.818;6.516;2023-06-22T06:04:05;40.53;;;34.67;;
60722;SDS011;46574;52.818;6.516;2023-06-22T06:06:33;41.75;;;34.40;;
60722;SDS011;46574;52.818;6.516;2023-06-22T06:09:02;44.20;;;35.85;;
60722;SDS011;46574;52.818;6.516;2023-06-22T06:11:29;37.40;;;33.08;;
60722;SDS011;46574;52.818;6.516;2023-06-22T06:13:55;32.05;;;28.73;;
60722;SDS011;46574;52.818;6.516;2023-06-22T06:16:21;35.92;;;32.05;;
60722;SDS011;46574;52.818;6.516;2023-06-22T06:18:47;34.80;;;30.75;;
60722;SDS011;46574;52.818;6.516;2023-06-22T06:21:14;34.85;;;30.48;;
60722;SDS011;46574;52.818;6.516;2023-06-22T06:23:40;36.08;;;32.08;;
60722;SDS011;46574;52.818;6.516;2023-06-22T06:26:06;35.60;;;31.85;;
60722;SDS011;46574;52.818;6.516;2023-06-22T06:28:32;33.10;;;29.60;;
60722;SDS011;46574;52.818;6.516;2023-06-22T06:30:58;25.85;;;23.08;;
60722;SDS011;46574;52.818;6.516;2023-06-22T06:33:23;30.05;;;26.67;;
60722;SDS011;46574;52.818;6.516;2023-06-22T06:35:49;27.98;;;25.05;;
60722;SDS011;46574;52.818;6.516;2023-06-22T06:38:15;30.63;;;27.40;;
60722;SDS011;46574;52.818;6.516;2023-06-22T06:40:40;29.80;;;26.30;;
60722;SDS011;46574;52.818;6.516;2023-06-22T06:43:06;28.88;;;25.85;;
60722;SDS011;46574;52.818;6.516;2023-06-22T06:45:32;24.70;;;22.10;;
60722;SDS011;46574;52.818;6.516;2023-06-22T06:47:59;23.10;;;20.63;;
60722;SDS011;46574;52.818;6.516;2023-06-22T06:50:25;23.30;;;21.05;;
60722;SDS011;46574;52.818;6.516;2023-06-22T06:52:51;26.95;;;24.05;;
60722;SDS011;46574;52.818;6.516;2023-06-22T06:55:17;24.55;;;21.95;;
60722;SDS011;46574;52.818;6.516;2023-06-22T06:57:45;24.27;;;21.85;;
60722;SDS011;46574;52.818;6.516;2023-06-22T07:00:13;24.10;;;21.70;;
60722;SDS011;46574;52.818;6.516;2023-06-22T07:02:41;21.77;;;19.73;;
60722;SDS011;46574;52.818;6.516;2023-06-22T07:05:11;19.58;;;17.58;;
60722;SDS011;46574;52.818;6.516;2023-06-22T07:07:38;21.58;;;17.63;;
60722;SDS011;46574;52.818;6.516;2023-06-22T07:10:04;16.98;;;15.27;;
60722;SDS011;46574;52.818;6.516;2023-06-22T07:12:31;15.70;;;13.02;;
60722;SDS011;46574;52.818;6.516;2023-06-22T07:15:03;16.73;;;15.13;;
60722;SDS011;46574;52.818;6.516;2023-06-22T07:17:30;15.13;;;13.57;;
60722;SDS011;46574;52.818;6.516;2023-06-22T07:19:56;15.93;;;14.43;;
60722;SDS011;46574;52.818;6.516;2023-06-22T07:22:22;13.68;;;12.23;;
60722;SDS011;46574;52.818;6.516;2023-06-22T07:24:48;14.73;;;13.23;;
60722;SDS011;46574;52.818;6.516;2023-06-22T07:27:14;15.93;;;14.32;;
60722;SDS011;46574;52.818;6.516;2023-06-22T07:29:43;15.35;;;13.85;;
60722;SDS011;46574;52.818;6.516;2023-06-22T07:32:09;15.20;;;13.80;;
60722;SDS011;46574;52.818;6.516;2023-06-22T07:34:34;15.75;;;13.93;;
60722;SDS011;46574;52.818;6.516;2023-06-22T07:37:00;13.82;;;12.50;;
60722;SDS011;46574;52.818;6.516;2023-06-22T07:39:26;12.55;;;11.25;;
60722;SDS011;46574;52.818;6.516;2023-06-22T07:41:53;12.07;;;10.98;;
60722;SDS011;46574;52.818;6.516;2023-06-22T07:44:19;15.02;;;12.23;;
60722;SDS011;46574;52.818;6.516;2023-06-22T07:46:44;11.88;;;10.73;;
60722;SDS011;46574;52.818;6.516;2023-06-22T07:49:10;12.75;;;11.55;;
60722;SDS011;46574;52.818;6.516;2023-06-22T07:51:36;13.18;;;11.88;;
60722;SDS011;46574;52.818;6.516;2023-06-22T07:54:01;12.68;;;11.48;;
60722;SDS011;46574;52.818;6.516;2023-06-22T07:56:27;16.23;;;11.52;;
60722;SDS011;46574;52.818;6.516;2023-06-22T07:58:53;11.52;;;10.43;;
60722;SDS011;46574;52.818;6.516;2023-06-22T08:01:19;10.88;;;9.80;;
60722;SDS011;46574;52.818;6.516;2023-06-22T08:03:47;10.35;;;9.45;;
60722;SDS011;46574;52.818;6.516;2023-06-22T08:06:13;10.50;;;9.60;;
60722;SDS011;46574;52.818;6.516;2023-06-22T08:08:39;10.95;;;9.95;;
60722;SDS011;46574;52.818;6.516;2023-06-22T08:11:05;11.85;;;10.70;;
60722;SDS011;46574;52.818;6.516;2023-06-22T08:13:31;10.80;;;9.70;;
60722;SDS011;46574;52.818;6.516;2023-06-22T08:15:57;11.90;;;10.65;;
60722;SDS011;46574;52.818;6.516;2023-06-22T08:18:22;11.05;;;9.90;;
60722;SDS011;46574;52.818;6.516;2023-06-22T08:20:48;11.38;;;10.23;;
60722;SDS011;46574;52.818;6.516;2023-06-22T08:23:14;9.82;;;8.93;;
60722;SDS011;46574;52.818;6.516;2023-06-22T08:25:40;10.48;;;9.48;;
60722;SDS011;46574;52.818;6.516;2023-06-22T08:28:06;10.07;;;9.07;;
60722;SDS011;46574;52.818;6.516;2023-06-22T08:30:32;11.05;;;9.10;;
60722;SDS011;46574;52.818;6.516;2023-06-22T08:32:57;9.32;;;8.32;;
60722;SDS011;46574;52.818;6.516;2023-06-22T08:35:23;11.52;;;10.43;;
60722;SDS011;46574;52.818;6.516;2023-06-22T08:37:49;11.50;;;10.30;;
60722;SDS011;46574;52.818;6.516;2023-06-22T08:40:19;11.07;;;10.13;;
60722;SDS011;46574;52.818;6.516;2023-06-22T08:42:46;9.75;;;8.65;;
60722;SDS011;46574;52.818;6.516;2023-06-22T08:45:12;10.50;;;9.50;;
60722;SDS011;46574;52.818;6.516;2023-06-22T08:47:39;8.98;;;8.18;;
60722;SDS011;46574;52.818;6.516;2023-06-22T08:50:06;9.35;;;8.45;;
60722;SDS011;46574;52.818;6.516;2023-06-22T08:52:33;10.03;;;8.30;;
60722;SDS011;46574;52.818;6.516;2023-06-22T08:54:59;11.40;;;10.30;;
60722;SDS011;46574;52.818;6.516;2023-06-22T08:57:25;9.70;;;8.70;;
60722;SDS011;46574;52.818;6.516;2023-06-22T08:59:52;9.02;;;7.88;;
60722;SDS011;46574;52.818;6.516;2023-06-22T09:02:18;9.32;;;8.13;;
60722;SDS011;46574;52.818;6.516;2023-06-22T09:04:45;8.57;;;7.78;;
60722;SDS011;46574;52.818;6.516;2023-06-22T09:07:11;9.32;;;7.85;;
60722;SDS011;46574;52.818;6.516;2023-06-22T09:09:37;9.35;;;8.45;;
60722;SDS011;46574;52.818;6.516;2023-06-22T09:12:03;8.77;;;7.97;;
60722;SDS011;46574;52.818;6.516;2023-06-22T09:14:29;9.43;;;8.43;;
60722;SDS011;46574;52.818;6.516;2023-06-22T09:16:55;9.18;;;8.27;;
60722;SDS011;46574;52.818;6.516;2023-06-22T09:19:20;8.80;;;7.88;;
60722;SDS011;46574;52.818;6.516;2023-06-22T09:21:46;9.30;;;8.10;;
60722;SDS011;46574;52.818;6.516;2023-06-22T09:24:12;9.38;;;8.48;;
60722;SDS011;46574;52.818;6.516;2023-06-22T09:26:37;9.50;;;8.50;;
60722;SDS011;46574;52.818;6.516;2023-06-22T09:29:06;8.38;;;6.40;;
60722;SDS011;46574;52.818;6.516;2023-06-22T09:31:32;7.95;;;7.00;;
60722;SDS011;46574;52.818;6.516;2023-06-22T09:33:57;8.38;;;7.45;;
60722;SDS011;46574;52.818;6.516;2023-06-22T09:36:23;8.90;;;8.10;;
60722;SDS011;46574;52.818;6.516;2023-06-22T09:38:49;8.90;;;7.90;;
60722;SDS011;46574;52.818;6.516;2023-06-22T09:41:20;10.75;;;8.48;;
60722;SDS011;46574;52.818;6.516;2023-06-22T09:43:46;9.45;;;8.52;;
60722;SDS011;46574;52.818;6.516;2023-06-22T09:46:14;9.32;;;8.43;;
60722;SDS011;46574;52.818;6.516;2023-06-22T09:48:41;9.43;;;8.52;;
60722;SDS011;46574;52.818;6.516;2023-06-22T09:51:07;10.10;;;9.18;;
60722;SDS011;46574;52.818;6.516;2023-06-22T09:53:32;8.38;;;7.68;;
60722;SDS011;46574;52.818;6.516;2023-06-22T09:56:00;8.70;;;7.85;;
60722;SDS011;46574;52.818;6.516;2023-06-22T09:58:26;7.07;;;6.40;;
60722;SDS011;46574;52.818;6.516;2023-06-22T10:00:52;9.68;;;8.77;;
60722;SDS011;46574;52.818;6.516;2023-06-22T10:03:19;9.98;;;9.02;;
60722;SDS011;46574;52.818;6.516;2023-06-22T10:05:45;7.60;;;6.90;;
60722;SDS011;46574;52.818;6.516;2023-06-22T10:08:11;9.00;;;8.15;;
60722;SDS011;46574;52.818;6.516;2023-06-22T10:10:37;8.80;;;7.75;;
60722;SDS011;46574;52.818;6.516;2023-06-22T10:13:06;8.45;;;7.65;;
60722;SDS011;46574;52.818;6.516;2023-06-22T10:15:36;8.48;;;7.68;;
60722;SDS011;46574;52.818;6.516;2023-06-22T10:18:02;10.40;;;7.63;;
60722;SDS011;46574;52.818;6.516;2023-06-22T10:20:28;8.88;;;7.97;;
60722;SDS011;46574;52.818;6.516;2023-06-22T10:22:53;8.68;;;7.32;;
60722;SDS011;46574;52.818;6.516;2023-06-22T10:25:19;9.45;;;8.65;;
60722;SDS011;46574;52.818;6.516;2023-06-22T10:27:45;11.23;;;10.23;;
60722;SDS011;46574;52.818;6.516;2023-06-22T10:30:11;9.77;;;8.88;;
60722;SDS011;46574;52.818;6.516;2023-06-22T10:32:38;8.38;;;7.68;;
60722;SDS011;46574;52.818;6.516;2023-06-22T10:35:04;9.07;;;8.25;;
60722;SDS011;46574;52.818;6.516;2023-06-22T10:37:30;8.75;;;7.80;;
60722;SDS011;46574;52.818;6.516;2023-06-22T10:39:56;9.98;;;9.00;;
60722;SDS011;46574;52.818;6.516;2023-06-22T10:42:22;10.07;;;9.10;;
60722;SDS011;46574;52.818;6.516;2023-06-22T10:44:48;9.23;;;8.35;;
60722;SDS011;46574;52.818;6.516;2023-06-22T10:47:13;10.20;;;9.18;;
60722;SDS011;46574;52.818;6.516;2023-06-22T10:49:39;9.45;;;8.48;;
60722;SDS011;46574;52.818;6.516;2023-06-22T10:52:06;8.65;;;7.85;;
60722;SDS011;46574;52.818;6.516;2023-06-22T10:54:33;8.32;;;7.63;;
60722;SDS011;46574;52.818;6.516;2023-06-22T10:56:59;9.10;;;8.30;;
60722;SDS011;46574;52.818;6.516;2023-06-22T10:59:25;7.40;;;6.80;;
60722;SDS011;46574;52.818;6.516;2023-06-22T11:01:52;8.77;;;8.07;;
60722;SDS011;46574;52.818;6.516;2023-06-22T11:04:18;8.70;;;7.93;;
60722;SDS011;46574;52.818;6.516;2023-06-22T11:06:44;8.90;;;7.75;;
60722;SDS011;46574;52.818;6.516;2023-06-22T11:09:10;9.57;;;8.32;;
60722;SDS011;46574;52.818;6.516;2023-06-22T11:11:36;8.10;;;7.30;;
60722;SDS011;46574;52.818;6.516;2023-06-22T11:14:02;8.18;;;7.30;;
60722;SDS011;46574;52.818;6.516;2023-06-22T11:16:28;6.93;;;6.43;;
60722;SDS011;46574;52.818;6.516;2023-06-22T11:18:53;8.85;;;6.38;;
60722;SDS011;46574;52.818;6.516;2023-06-22T11:21:19;7.38;;;6.03;;
60722;SDS011;46574;52.818;6.516;2023-06-22T11:23:45;8.10;;;7.32;;
60722;SDS011;46574;52.818;6.516;2023-06-22T11:26:10;6.95;;;6.25;;
60722;SDS011;46574;52.818;6.516;2023-06-22T11:28:36;7.40;;;6.70;;
60722;SDS011;46574;52.818;6.516;2023-06-22T11:31:02;7.82;;;7.03;;
60722;SDS011;46574;52.818;6.516;2023-06-22T11:33:28;9.30;;;7.70;;
60722;SDS011;46574;52.818;6.516;2023-06-22T11:35:54;8.38;;;7.63;;
60722;SDS011;46574;52.818;6.516;2023-06-22T11:38:21;8.27;;;7.57;;
60722;SDS011;46574;52.818;6.516;2023-06-22T11:40:47;8.60;;;7.57;;
60722;SDS011;46574;52.818;6.516;2023-06-22T11:43:13;8.05;;;7.32;;
60722;SDS011;46574;52.818;6.516;2023-06-22T11:45:40;8.48;;;7.70;;
60722;SDS011;46574;52.818;6.516;2023-06-22T11:48:06;7.60;;;7.00;;
60722;SDS011;46574;52.818;6.516;2023-06-22T11:50:31;7.70;;;7.00;;
60722;SDS011;46574;52.818;6.516;2023-06-22T11:53:01;7.93;;;7.13;;
60722;SDS011;46574;52.818;6.516;2023-06-22T11:55:27;9.43;;;8.63;;
60722;SDS011;46574;52.818;6.516;2023-06-22T11:57:54;7.90;;;7.10;;
60722;SDS011;46574;52.818;6.516;2023-06-22T12:00:21;7.20;;;6.47;;
60722;SDS011;46574;52.818;6.516;2023-06-22T12:02:49;8.50;;;7.70;;
60722;SDS011;46574;52.818;6.516;2023-06-22T12:05:19;8.80;;;8.00;;
60722;SDS011;46574;52.818;6.516;2023-06-22T12:07:49;8.77;;;8.07;;
60722;SDS011;46574;52.818;6.516;2023-06-22T12:10:15;8.45;;;7.70;;
60722;SDS011;46574;52.818;6.516;2023-06-22T12:12:41;9.60;;;8.63;;
60722;SDS011;46574;52.818;6.516;2023-06-22T12:15:08;7.90;;;7.20;;
60722;SDS011;46574;52.818;6.516;2023-06-22T12:17:34;6.57;;;5.97;;
60722;SDS011;46574;52.818;6.516;2023-06-22T12:20:00;7.63;;;6.93;;
60722;SDS011;46574;52.818;6.516;2023-06-22T12:22:27;9.73;;;8.20;;
60722;SDS011;46574;52.818;6.516;2023-06-22T12:24:53;9.68;;;8.70;;
60722;SDS011;46574;52.818;6.516;2023-06-22T12:27:19;9.70;;;8.80;;
60722;SDS011;46574;52.818;6.516;2023-06-22T12:29:47;9.38;;;8.50;;
60722;SDS011;46574;52.818;6.516;2023-06-22T12:32:13;8.55;;;7.72;;
60722;SDS011;46574;52.818;6.516;2023-06-22T12:34:41;9.48;;;8.52;;
60722;SDS011;46574;52.818;6.516;2023-06-22T12:37:07;9.32;;;8.43;;
60722;SDS011;46574;52.818;6.516;2023-06-22T12:39:33;10.55;;;9.55;;
60722;SDS011;46574;52.818;6.516;2023-06-22T12:41:59;9.23;;;8.43;;
60722;SDS011;46574;52.818;6.516;2023-06-22T12:44:25;9.10;;;8.40;;
60722;SDS011;46574;52.818;6.516;2023-06-22T12:46:51;9.88;;;9.00;;
60722;SDS011;46574;52.818;6.516;2023-06-22T12:49:17;8.30;;;7.60;;
60722;SDS011;46574;52.818;6.516;2023-06-22T12:51:43;8.10;;;7.30;;
60722;SDS011;46574;52.818;6.516;2023-06-22T12:54:09;9.07;;;8.25;;
60722;SDS011;46574;52.818;6.516;2023-06-22T12:56:36;9.25;;;8.35;;
60722;SDS011;46574;52.818;6.516;2023-06-22T12:59:03;9.18;;;8.38;;
60722;SDS011;46574;52.818;6.516;2023-06-22T13:01:29;8.50;;;7.80;;
60722;SDS011;46574;52.818;6.516;2023-06-22T13:03:55;7.07;;;6.47;;
60722;SDS011;46574;52.818;6.516;2023-06-22T13:06:21;9.18;;;8.27;;
60722;SDS011;46574;52.818;6.516;2023-06-22T13:08:47;8.32;;;7.53;;
60722;SDS011;46574;52.818;6.516;2023-06-22T13:11:13;7.20;;;6.60;;
60722;SDS011;46574;52.818;6.516;2023-06-22T13:13:38;8.65;;;7.90;;
60722;SDS011;46574;52.818;6.516;2023-06-22T13:16:05;8.10;;;7.28;;
60722;SDS011;46574;52.818;6.516;2023-06-22T13:18:31;7.72;;;7.03;;
60722;SDS011;46574;52.818;6.516;2023-06-22T13:20:58;7.28;;;6.57;;
60722;SDS011;46574;52.818;6.516;2023-06-22T13:23:25;8.73;;;7.93;;
60722;SDS011;46574;52.818;6.516;2023-06-22T13:25:50;7.82;;;7.03;;
60722;SDS011;46574;52.818;6.516;2023-06-22T13:28:16;7.90;;;6.20;;
60722;SDS011;46574;52.818;6.516;2023-06-22T13:30:42;7.53;;;6.22;;
60722;SDS011;46574;52.818;6.516;2023-06-22T13:33:10;7.13;;;6.38;;
60722;SDS011;46574;52.818;6.516;2023-06-22T13:35:36;8.02;;;7.22;;
60722;SDS011;46574;52.818;6.516;2023-06-22T13:38:02;9.60;;;7.70;;
60722;SDS011;46574;52.818;6.516;2023-06-22T13:40:28;7.88;;;7.15;;
60722;SDS011;46574;52.818;6.516;2023-06-22T13:42:55;8.75;;;7.95;;
60722;SDS011;46574;52.818;6.516;2023-06-22T13:45:20;8.70;;;8.00;;
60722;SDS011;46574;52.818;6.516;2023-06-22T13:47:46;9.15;;;8.25;;
60722;SDS011;46574;52.818;6.516;2023-06-22T13:50:12;10.00;;;8.43;;
60722;SDS011;46574;52.818;6.516;2023-06-22T13:52:38;9.57;;;8.77;;
60722;SDS011;46574;52.818;6.516;2023-06-22T13:55:04;9.13;;;8.32;;
60722;SDS011;46574;52.818;6.516;2023-06-22T13:57:32;7.90;;;7.20;;
60722;SDS011;46574;52.818;6.516;2023-06-22T13:59:57;8.55;;;7.85;;
60722;SDS011;46574;52.818;6.516;2023-06-22T14:02:23;9.80;;;9.00;;
60722;SDS011;46574;52.818;6.516;2023-06-22T14:04:51;9.75;;;8.98;;
60722;SDS011;46574;52.818;6.516;2023-06-22T14:07:17;9.73;;;8.93;;
60722;SDS011;46574;52.818;6.516;2023-06-22T14:09:44;12.10;;;10.93;;
60722;SDS011;46574;52.818;6.516;2023-06-22T14:12:10;9.45;;;8.55;;
60722;SDS011;46574;52.818;6.516;2023-06-22T14:14:36;11.00;;;9.95;;
60722;SDS011;46574;52.818;6.516;2023-06-22T14:17:02;9.30;;;8.40;;
60722;SDS011;46574;52.818;6.516;2023-06-22T14:19:29;10.13;;;9.23;;
60722;SDS011;46574;52.818;6.516;2023-06-22T14:21:55;10.63;;;9.63;;
60722;SDS011;46574;52.818;6.516;2023-06-22T14:24:22;10.10;;;9.20;;
60722;SDS011;46574;52.818;6.516;2023-06-22T14:26:48;10.32;;;9.32;;
60722;SDS011;46574;52.818;6.516;2023-06-22T14:29:13;11.15;;;10.15;;
60722;SDS011;46574;52.818;6.516;2023-06-22T14:31:39;12.48;;;11.40;;
60722;SDS011;46574;52.818;6.516;2023-06-22T14:34:05;12.85;;;11.75;;
60722;SDS011;46574;52.818;6.516;2023-06-22T14:36:31;14.10;;;12.90;;